Time;durP1;ratioP1;P1;durP2;ratioP2;P2;SDS_P1;SDS_P2;PMS_P1;PMS_P2;Temp;Humidity;BMP_temperature;BMP_pressure;BME280_temperature;BME280_humidity;BME280_pressure;Samples;Min_cycle;Max_cycle;Signal;HPM_P1;HPM_P2
2023/01/30 00:01:43;;;;;;;22.55;17.17;;;10.50;96.80;;;;;;5072465;28;20470;-61
2023/01/30 00:04:14;;;;;;;20.85;17.65;;;10.40;96.90;;;;;;5072580;28;20020;-71
2023/01/30 00:06:40;;;;;;;21.35;17.17;;;10.40;96.90;;;;;;5072767;28;20448;-72
2023/01/30 00:09:06;;;;;;;21.33;15.32;;;10.40;97.10;;;;;;5072663;28;20068;-70
2023/01/30 00:11:32;;;;;;;21.30;16.17;;;10.40;97.20;;;;;;5072800;28;20016;-68
2023/01/30 00:13:59;;;;;;;20.10;15.38;;;10.40;97.20;;;;;;5072271;28;20024;-74
2023/01/30 00:16:24;;;;;;;21.92;15.27;;;10.40;97.30;;;;;;5072637;28;20032;-60
2023/01/30 00:18:50;;;;;;;19.40;16.05;;;10.40;97.30;;;;;;5072662;28;20098;-73
2023/01/30 00:21:16;;;;;;;21.50;16.35;;;10.40;97.70;;;;;;5072090;28;20373;-72
2023/01/30 00:23:42;;;;;;;22.10;17.13;;;10.40;97.50;;;;;;5070382;28;20040;-69
2023/01/30 00:26:09;;;;;;;21.33;16.48;;;10.40;97.50;;;;;;5070753;28;20055;-60
2023/01/30 00:28:35;;;;;;;27.55;19.02;;;10.30;97.50;;;;;;5071422;28;20025;-60
2023/01/30 00:31:01;;;;;;;23.05;17.48;;;10.30;97.60;;;;;;5072163;28;20399;-64
2023/01/30 00:33:27;;;;;;;22.85;16.98;;;10.30;97.70;;;;;;5072298;28;20108;-64
2023/01/30 00:35:54;;;;;;;22.98;16.85;;;10.30;97.70;;;;;;5072218;28;20033;-59
2023/01/30 00:38:21;;;;;;;22.38;17.05;;;10.40;97.70;;;;;;5072469;28;20044;-63
2023/01/30 00:40:47;;;;;;;25.13;17.40;;;10.30;97.80;;;;;;5072226;28;20021;-64
2023/01/30 00:48:45;;;;;;;20.75;16.17;;;10.30;98.00;;;;;;5072449;28;20067;-68
2023/01/30 00:51:11;;;;;;;21.02;17.10;;;10.30;98.00;;;;;;5072220;28;20028;-61
2023/01/30 00:53:37;;;;;;;21.60;17.05;;;10.30;98.00;;;;;;5072378;28;20091;-62
2023/01/30 00:56:03;;;;;;;18.88;16.20;;;10.30;98.10;;;;;;5072451;28;20499;-63
2023/01/30 00:58:28;;;;;;;19.77;16.60;;;10.30;98.10;;;;;;5072008;28;20037;-58
2023/01/30 01:00:55;;;;;;;19.63;16.42;;;10.30;98.20;;;;;;5072240;28;20017;-65
2023/01/30 01:03:20;;;;;;;18.75;14.68;;;10.30;98.30;;;;;;5076591;28;20024;-59
2023/01/30 01:05:47;;;;;;;20.48;15.90;;;10.30;98.30;;;;;;5075933;28;20572;-68
2023/01/30 01:08:12;;;;;;;23.60;16.20;;;10.30;98.70;;;;;;5076382;28;20032;-60
2023/01/30 01:10:38;;;;;;;22.75;16.63;;;10.30;98.30;;;;;;5076027;28;20035;-59
2023/01/30 01:13:05;;;;;;;20.85;16.33;;;10.30;98.40;;;;;;5075968;28;20082;-68
2023/01/30 01:15:31;;;;;;;19.92;15.23;;;10.30;98.50;;;;;;5075909;28;20021;-60
2023/01/30 01:17:56;;;;;;;18.17;14.30;;;10.30;98.50;;;;;;5076166;28;20047;-58
2023/01/30 01:20:22;;;;;;;17.95;14.50;;;10.30;98.40;;;;;;5075924;28;20024;-58
2023/01/30 01:22:52;;;;;;;19.33;14.13;;;10.30;98.50;;;;;;5075956;28;20032;-58
2023/01/30 01:25:18;;;;;;;19.98;14.65;;;10.30;98.50;;;;;;5075473;28;20059;-65
2023/01/30 01:27:45;;;;;;;16.05;14.07;;;10.30;98.60;;;;;;5075575;28;20420;-60
2023/01/30 01:30:11;;;;;;;18.33;13.77;;;10.30;98.50;;;;;;5075623;28;20024;-58
2023/01/30 01:32:37;;;;;;;17.80;14.00;;;10.30;98.60;;;;;;5075762;28;20104;-58
2023/01/30 01:35:03;;;;;;;19.23;15.02;;;10.30;98.70;;;;;;5075742;28;20473;-59
2023/01/30 01:37:29;;;;;;;18.05;13.02;;;10.30;98.70;;;;;;5075321;28;20032;-60
2023/01/30 01:42:39;;;;;;;16.30;12.30;;;10.30;98.80;;;;;;5075466;28;20505;-63
2023/01/30 01:45:21;;;;;;;18.35;13.15;;;10.30;98.70;;;;;;5075749;28;20017;-61
2023/01/30 01:47:57;;;;;;;14.68;12.13;;;10.30;98.80;;;;;;5057551;28;20032;-61
2023/01/30 01:50:39;;;;;;;15.95;12.88;;;10.30;98.80;;;;;;5075486;28;20110;-61
2023/01/30 01:53:06;;;;;;;18.70;13.07;;;10.30;98.90;;;;;;5075399;28;20021;-64
2023/01/30 01:55:32;;;;;;;14.80;12.43;;;10.30;98.90;;;;;;5075108;28;20051;-63
2023/01/30 01:58:24;;;;;;;16.92;12.23;;;10.30;98.90;;;;;;5075226;28;20051;-59
2023/01/30 02:00:50;;;;;;;14.40;12.40;;;10.30;98.90;;;;;;5075003;28;20027;-61
2023/01/30 02:03:20;;;;;;;22.80;13.75;;;10.30;98.90;;;;;;5075293;28;20020;-61
2023/01/30 02:05:49;;;;;;;13.95;11.52;;;10.30;98.90;;;;;;5075121;28;20097;-63
2023/01/30 02:08:22;;;;;;;16.90;12.00;;;10.30;98.90;;;;;;5075172;28;20029;-58
2023/01/30 02:10:55;;;;;;;16.60;12.15;;;10.30;99.00;;;;;;5074831;28;20025;-60
2023/01/30 02:13:21;;;;;;;17.88;12.63;;;10.30;98.90;;;;;;5074087;28;20058;-60
2023/01/30 02:15:48;;;;;;;13.07;11.23;;;10.30;99.00;;;;;;5075018;28;20116;-63
2023/01/30 02:18:14;;;;;;;15.60;11.35;;;10.30;99.00;;;;;;5075132;28;20107;-65
2023/01/30 02:21:04;;;;;;;15.15;10.57;;;10.30;99.00;;;;;;5074903;28;20024;-62
2023/01/30 02:23:57;;;;;;;17.40;10.05;;;10.20;99.00;;;;;;5074505;28;20025;-65
2023/01/30 02:26:36;;;;;;;14.77;10.43;;;10.30;98.90;;;;;;5074671;28;20082;-68
2023/01/30 02:29:13;;;;;;;13.27;10.43;;;10.30;98.90;;;;;;5074672;28;20063;-69
2023/01/30 02:31:52;;;;;;;12.18;9.18;;;10.30;99.00;;;;;;5056592;28;20043;-74
2023/01/30 02:35:04;;;;;;;18.33;10.32;;;10.30;99.00;;;;;;5074331;28;20028;-65
2023/01/30 02:37:38;;;;;;;16.05;10.32;;;10.30;99.10;;;;;;5070613;28;20052;-69
2023/01/30 02:40:31;;;;;;;15.45;9.32;;;10.30;99.10;;;;;;5074334;28;20031;-62
2023/01/30 02:43:02;;;;;;;14.00;10.35;;;10.30;99.20;;;;;;5074462;28;20028;-64
2023/01/30 02:45:33;;;;;;;14.53;9.63;;;10.30;99.20;;;;;;5074464;28;20021;-59
2023/01/30 02:48:04;;;;;;;14.20;9.30;;;10.30;99.30;;;;;;5074290;28;20673;-63
2023/01/30 02:50:41;;;;;;;14.73;9.45;;;10.30;99.30;;;;;;5074300;28;20021;-57
2023/01/30 02:53:07;;;;;;;11.68;8.35;;;10.30;99.30;;;;;;5073973;28;20023;-61
2023/01/30 02:55:33;;;;;;;10.77;8.30;;;10.30;99.30;;;;;;5074182;28;20020;-58
2023/01/30 02:58:01;;;;;;;10.60;7.30;;;10.30;99.30;;;;;;5073955;28;20037;-58
2023/01/30 03:00:32;;;;;;;12.93;7.90;;;10.30;99.40;;;;;;5074279;28;20424;-58
2023/01/30 03:03:22;;;;;;;11.43;7.85;;;10.30;99.40;;;;;;5073988;28;20397;-60
2023/01/30 03:06:09;;;;;;;10.30;7.50;;;10.30;99.40;;;;;;5073985;28;20485;-58
2023/01/30 03:09:03;;;;;;;11.25;6.63;;;10.30;99.50;;;;;;5073682;28;20029;-58
2023/01/30 03:11:43;;;;;;;12.32;7.05;;;10.30;99.50;;;;;;5074143;28;20025;-58
2023/01/30 03:14:29;;;;;;;8.45;6.25;;;10.30;99.60;;;;;;5074012;28;20035;-58
2023/01/30 03:16:57;;;;;;;7.65;5.57;;;10.30;99.60;;;;;;5073760;28;20043;-58
2023/01/30 03:19:23;;;;;;;7.30;5.20;;;10.30;99.90;;;;;;5073669;28;20017;-58
2023/01/30 03:21:49;;;;;;;10.07;5.53;;;10.20;99.80;;;;;;5073506;28;20116;-58
2023/01/30 03:24:15;;;;;;;12.45;6.10;;;10.30;99.90;;;;;;5073615;28;20048;-58
2023/01/30 03:27:01;;;;;;;6.85;4.63;;;10.30;99.90;;;;;;5073515;28;20098;-61
2023/01/30 03:29:27;;;;;;;9.50;5.25;;;10.30;99.90;;;;;;5073434;28;20028;-75
2023/01/30 03:31:53;;;;;;;11.45;5.10;;;10.30;99.90;;;;;;5073502;28;20012;-71
2023/01/30 03:34:18;;;;;;;7.40;4.90;;;10.30;99.90;;;;;;5073392;28;20028;-70
2023/01/30 03:36:45;;;;;;;7.03;3.78;;;10.30;99.90;;;;;;5066790;28;20497;-60
2023/01/30 03:39:11;;;;;;;9.18;4.80;;;10.30;99.90;;;;;;5072968;28;20504;-63
2023/01/30 03:41:37;;;;;;;6.07;3.90;;;10.30;99.90;;;;;;5072446;28;20021;-64
2023/01/30 03:44:03;;;;;;;7.43;3.83;;;10.30;99.90;;;;;;5072195;28;20111;-62
2023/01/30 03:46:28;;;;;;;12.32;4.72;;;10.30;99.90;;;;;;5073129;28;20060;-65
2023/01/30 03:48:54;;;;;;;7.82;4.07;;;10.30;99.90;;;;;;5073001;28;20382;-66
2023/01/30 03:51:19;;;;;;;5.95;3.95;;;10.30;99.90;;;;;;5072928;28;20055;-70
2023/01/30 03:53:45;;;;;;;5.93;3.88;;;10.30;99.90;;;;;;5073131;28;20032;-68
2023/01/30 03:56:11;;;;;;;6.10;3.90;;;10.30;99.90;;;;;;5072982;28;20079;-63
2023/01/30 03:58:36;;;;;;;7.38;3.97;;;10.30;99.90;;;;;;5072879;28;20501;-66
2023/01/30 04:01:02;;;;;;;8.90;4.38;;;10.30;99.90;;;;;;5072788;28;20031;-64
2023/01/30 04:03:28;;;;;;;8.90;4.57;;;10.40;99.90;;;;;;5072859;28;20027;-68
2023/01/30 04:05:53;;;;;;;10.07;4.65;;;10.30;99.90;;;;;;5072004;28;20431;-71
2023/01/30 04:08:19;;;;;;;8.57;3.80;;;10.30;99.90;;;;;;5054980;28;20029;-62
2023/01/30 04:10:44;;;;;;;8.52;4.18;;;10.30;99.90;;;;;;5072655;28;20025;-68
2023/01/30 04:13:10;;;;;;;6.85;4.03;;;10.30;99.90;;;;;;5072740;28;20033;-66
2023/01/30 04:15:36;;;;;;;9.65;4.60;;;10.40;99.90;;;;;;5072900;28;20035;-70
2023/01/30 04:18:01;;;;;;;9.88;3.80;;;10.30;99.90;;;;;;5072696;28;20090;-65
2023/01/30 04:20:27;;;;;;;7.10;4.15;;;10.40;99.90;;;;;;5072404;28;20036;-59
2023/01/30 04:22:54;;;;;;;7.78;4.75;;;10.40;99.90;;;;;;5072727;28;20060;-58
2023/01/30 04:25:19;;;;;;;10.15;4.53;;;10.30;99.90;;;;;;5072524;28;20028;-60
2023/01/30 04:27:45;;;;;;;5.57;4.18;;;10.30;99.90;;;;;;5072660;28;20050;-63
2023/01/30 04:30:11;;;;;;;7.03;3.75;;;10.40;99.90;;;;;;5072493;28;20552;-61
2023/01/30 04:32:36;;;;;;;6.75;3.70;;;10.30;99.90;;;;;;5072525;28;20110;-68
2023/01/30 04:35:02;;;;;;;5.93;3.58;;;10.40;99.90;;;;;;5072023;28;20025;-67
2023/01/30 04:37:28;;;;;;;10.93;4.50;;;10.40;99.90;;;;;;5071722;28;20040;-69
2023/01/30 04:39:53;;;;;;;6.25;3.83;;;10.30;99.90;;;;;;5072366;28;20025;-70
2023/01/30 04:42:19;;;;;;;9.13;4.13;;;10.30;99.90;;;;;;5072484;28;20028;-68
2023/01/30 04:44:44;;;;;;;7.15;3.83;;;10.40;99.90;;;;;;5072386;28;20048;-69
2023/01/30 04:47:10;;;;;;;5.03;2.72;;;10.40;99.90;;;;;;5072501;28;20033;-63
2023/01/30 04:49:35;;;;;;;6.05;3.38;;;10.30;99.90;;;;;;5072120;28;20024;-64
2023/01/30 04:52:01;;;;;;;8.13;3.58;;;10.40;99.90;;;;;;5072186;28;20021;-61
2023/01/30 04:54:27;;;;;;;6.10;3.15;;;10.40;99.90;;;;;;5072354;28;20035;-63
2023/01/30 04:56:52;;;;;;;7.15;3.10;;;10.40;99.90;;;;;;5072535;28;20465;-68
2023/01/30 04:59:18;;;;;;;5.63;3.30;;;10.40;99.90;;;;;;5072470;28;20381;-62
2023/01/30 05:01:43;;;;;;;7.40;2.88;;;10.40;99.90;;;;;;5072270;28;20074;-63
2023/01/30 05:04:09;;;;;;;7.78;3.45;;;10.40;99.90;;;;;;5071762;28;20020;-59
2023/01/30 05:06:35;;;;;;;7.25;3.65;;;10.40;99.90;;;;;;5071904;28;20039;-62
2023/01/30 05:09:02;;;;;;;6.50;3.53;;;10.40;99.90;;;;;;5072270;28;20482;-66
2023/01/30 05:11:29;;;;;;;9.93;2.97;;;10.40;99.90;;;;;;5072204;28;20017;-72
2023/01/30 05:13:55;;;;;;;8.00;3.53;;;10.40;99.90;;;;;;5072404;28;20501;-65
2023/01/30 05:16:21;;;;;;;8.35;3.20;;;10.40;99.90;;;;;;5069948;28;20549;-66
2023/01/30 05:18:48;;;;;;;7.38;3.53;;;10.40;99.90;;;;;;5075843;28;20071;-62
2023/01/30 05:21:16;;;;;;;7.05;3.58;;;10.40;99.90;;;;;;5092164;28;20568;-62
2023/01/30 05:23:42;;;;;;;9.07;4.05;;;10.40;99.90;;;;;;5092206;28;20027;-70
2023/01/30 05:26:08;;;;;;;10.18;4.22;;;10.40;99.90;;;;;;5084143;28;20032;-60
2023/01/30 05:28:34;;;;;;;7.57;3.47;;;10.40;99.90;;;;;;5060945;28;20614;-68
2023/01/30 05:31:05;;;;;;;8.50;4.15;;;10.40;99.90;;;;;;5064074;28;20021;-65
2023/01/30 05:33:30;;;;;;;9.15;4.35;;;10.40;99.90;;;;;;5066395;28;20028;-72
2023/01/30 05:35:57;;;;;;;8.70;4.47;;;10.40;99.90;;;;;;5068725;28;20066;-66
2023/01/30 05:38:23;;;;;;;12.05;4.47;;;10.50;99.90;;;;;;5082813;28;20504;-61
2023/01/30 05:40:59;;;;;;;13.52;5.32;;;10.50;99.90;;;;;;5091210;28;20028;-59
2023/01/30 05:43:25;;;;;;;15.27;6.03;;;10.50;99.90;;;;;;5092003;28;20044;-71
2023/01/30 05:45:55;;;;;;;10.02;5.57;;;10.50;99.90;;;;;;5092162;28;20366;-63
2023/01/30 05:48:21;;;;;;;13.93;5.15;;;10.50;99.90;;;;;;5090243;28;20024;-58
2023/01/30 05:50:50;;;;;;;9.70;4.78;;;10.50;99.90;;;;;;5095147;28;20035;-59
2023/01/30 05:53:16;;;;;;;8.95;5.00;;;10.50;99.90;;;;;;5095502;28;20024;-60
2023/01/30 05:55:42;;;;;;;11.48;3.83;;;10.60;99.90;;;;;;5095626;28;20016;-59
2023/01/30 05:58:08;;;;;;;12.23;4.00;;;10.60;99.90;;;;;;5093215;28;20028;-59
2023/01/30 06:00:34;;;;;;;8.27;3.80;;;10.60;99.90;;;;;;5087021;28;20067;-59
2023/01/30 06:03:00;;;;;;;9.57;3.33;;;10.60;99.90;;;;;;5062379;28;20101;-64
2023/01/30 06:05:25;;;;;;;11.95;3.80;;;10.60;99.90;;;;;;5074772;28;20170;-59
2023/01/30 06:07:51;;;;;;;7.03;3.17;;;10.60;99.90;;;;;;5078255;28;20032;-61
2023/01/30 06:10:16;;;;;;;13.10;3.50;;;10.60;99.90;;;;;;5094327;28;20024;-58
2023/01/30 06:12:42;;;;;;;13.02;3.33;;;10.60;99.90;;;;;;5095739;28;20043;-59
2023/01/30 06:15:08;;;;;;;11.73;4.00;;;10.60;99.90;;;;;;5085826;28;20477;-58
2023/01/30 06:17:34;;;;;;;11.55;3.90;;;10.60;99.90;;;;;;5086424;28;20036;-62
2023/01/30 06:19:59;;;;;;;9.85;3.83;;;10.70;99.90;;;;;;5088052;28;20031;-61
2023/01/30 06:22:25;;;;;;;8.93;3.45;;;10.70;99.90;;;;;;5094915;28;20024;-59
2023/01/30 06:24:50;;;;;;;12.15;3.25;;;10.70;99.90;;;;;;5095002;28;20078;-65
2023/01/30 06:27:16;;;;;;;12.05;4.13;;;10.70;99.90;;;;;;5085693;28;20100;-59
2023/01/30 06:29:41;;;;;;;11.80;3.33;;;10.70;99.90;;;;;;5074235;28;20031;-59
2023/01/30 06:32:08;;;;;;;14.85;3.63;;;10.60;99.90;;;;;;5074517;28;20424;-59
2023/01/30 06:34:34;;;;;;;10.68;3.40;;;10.70;99.90;;;;;;5074620;28;20013;-60
2023/01/30 06:36:59;;;;;;;12.80;3.47;;;10.70;99.90;;;;;;5074247;28;20052;-59
2023/01/30 06:39:25;;;;;;;13.50;3.65;;;10.70;99.90;;;;;;5074189;28;20524;-62
2023/01/30 06:41:50;;;;;;;11.50;3.28;;;10.70;99.90;;;;;;5074448;28;20028;-59
2023/01/30 06:44:16;;;;;;;12.65;3.22;;;10.70;99.90;;;;;;5074198;28;20028;-60
2023/01/30 06:46:42;;;;;;;14.18;3.35;;;10.60;99.90;;;;;;5074655;28;20028;-59
2023/01/30 06:49:07;;;;;;;14.70;4.25;;;10.60;99.90;;;;;;5074250;28;20029;-62
2023/01/30 06:51:33;;;;;;;8.40;3.55;;;10.70;99.90;;;;;;5074303;28;20031;-59
2023/01/30 06:53:58;;;;;;;17.20;4.78;;;10.70;99.90;;;;;;5074019;28;20056;-58
2023/01/30 06:56:24;;;;;;;26.63;4.82;;;10.70;99.90;;;;;;5074303;28;20028;-68
2023/01/30 06:58:49;;;;;;;12.95;3.67;;;10.70;99.90;;;;;;5074492;28;20067;-59
2023/01/30 07:01:15;;;;;;;14.07;3.53;;;10.70;99.90;;;;;;5061523;28;20063;-62
2023/01/30 07:03:41;;;;;;;10.60;2.83;;;10.70;99.90;;;;;;5093984;28;20032;-74
2023/01/30 07:06:06;;;;;;;9.00;2.83;;;10.60;99.90;;;;;;5081248;28;20025;-61
2023/01/30 07:08:32;;;;;;;14.43;3.33;;;10.60;99.80;;;;;;5073361;28;20032;-59
2023/01/30 07:10:57;;;;;;;14.98;3.30;;;10.60;99.60;;;;;;5073507;28;20115;-58
2023/01/30 07:13:23;;;;;;;9.70;2.30;;;10.60;99.50;;;;;;5072834;28;20040;-59
2023/01/30 07:15:49;;;;;;;13.05;2.67;;;10.60;99.30;;;;;;5073658;28;20028;-59
2023/01/30 07:18:15;;;;;;;13.43;3.08;;;10.60;99.10;;;;;;5073683;28;20107;-60
2023/01/30 07:20:41;;;;;;;14.30;2.75;;;10.60;98.80;;;;;;5073611;28;20443;-58
2023/01/30 07:23:07;;;;;;;8.43;2.58;;;10.60;98.70;;;;;;5070870;28;20028;-59
2023/01/30 07:25:32;;;;;;;9.20;2.70;;;10.50;98.70;;;;;;5071965;28;20038;-60
2023/01/30 07:27:59;;;;;;;10.73;2.63;;;10.50;98.70;;;;;;5072875;28;20032;-70
2023/01/30 07:30:27;;;;;;;14.00;2.55;;;10.50;98.70;;;;;;5073666;28;20029;-59
2023/01/30 07:32:56;;;;;;;13.40;2.80;;;10.50;98.60;;;;;;5073074;28;20031;-59
2023/01/30 07:35:23;;;;;;;7.38;2.50;;;10.50;98.70;;;;;;5073105;28;20024;-60
2023/01/30 07:37:49;;;;;;;14.80;3.38;;;10.50;98.50;;;;;;5073201;28;20185;-59
2023/01/30 07:40:16;;;;;;;13.75;2.78;;;10.50;98.50;;;;;;5072964;28;20078;-63
2023/01/30 07:42:41;;;;;;;13.38;2.80;;;10.50;98.50;;;;;;5070742;28;20036;-59
2023/01/30 07:45:07;;;;;;;7.68;2.72;;;10.50;98.50;;;;;;5071881;28;20032;-60
2023/01/30 07:47:33;;;;;;;11.48;2.80;;;10.60;98.60;;;;;;5073113;28;20525;-59
2023/01/30 07:49:59;;;;;;;11.90;2.88;;;10.50;98.60;;;;;;5073125;28;20103;-59
2023/01/30 07:52:25;;;;;;;13.93;3.20;;;10.50;98.70;;;;;;5073208;28;20486;-59
2023/01/30 07:54:50;;;;;;;12.32;3.17;;;10.50;98.70;;;;;;5071048;28;20052;-58
2023/01/30 07:57:16;;;;;;;12.75;3.17;;;10.60;98.50;;;;;;5061511;28;20482;-58
2023/01/30 07:59:41;;;;;;;15.40;3.50;;;10.50;98.60;;;;;;5072679;28;20074;-59
2023/01/30 08:02:10;;;;;;;11.35;3.30;;;10.50;98.70;;;;;;5072880;28;20029;-59
2023/01/30 08:04:37;;;;;;;17.42;3.40;;;10.40;98.80;;;;;;5071683;28;20545;-58
2023/01/30 08:07:02;;;;;;;18.10;3.67;;;10.30;98.90;;;;;;5071166;28;20488;-58
2023/01/30 08:09:28;;;;;;;12.52;3.58;;;10.10;99.30;;;;;;5072677;28;20191;-66
2023/01/30 08:11:53;;;;;;;18.15;3.38;;;10.00;99.60;;;;;;5071689;28;20047;-58
2023/01/30 08:14:19;;;;;;;17.33;3.42;;;9.90;99.80;;;;;;5069981;28;20035;-60
2023/01/30 08:16:45;;;;;;;16.00;4.18;;;9.90;99.70;;;;;;5071470;28;20024;-58
2023/01/30 08:19:10;;;;;;;13.95;3.17;;;9.80;99.80;;;;;;5071507;28;20507;-58
2023/01/30 08:21:36;;;;;;;19.27;3.78;;;9.80;99.60;;;;;;5070083;28;20029;-58
2023/01/30 08:24:01;;;;;;;14.93;4.28;;;9.70;99.50;;;;;;5071763;28;20096;-58
2023/01/30 08:26:27;;;;;;;14.98;4.32;;;9.70;99.10;;;;;;5070473;28;20040;-58
2023/01/30 08:28:54;;;;;;;15.77;3.72;;;9.60;98.90;;;;;;5068474;28;20040;-58
2023/01/30 08:31:20;;;;;;;16.75;4.43;;;9.60;98.90;;;;;;5071393;28;20040;-59
2023/01/30 08:33:46;;;;;;;15.55;3.53;;;9.50;98.40;;;;;;5080790;28;20028;-58
2023/01/30 08:36:12;;;;;;;17.52;3.53;;;9.50;98.20;;;;;;5076086;28;20059;-60
2023/01/30 08:38:37;;;;;;;18.50;3.85;;;9.60;97.90;;;;;;5076112;28;20485;-60
2023/01/30 08:41:06;;;;;;;14.20;3.53;;;9.50;97.80;;;;;;5075443;28;20013;-60
2023/01/30 08:43:32;;;;;;;8.82;2.72;;;9.60;98.10;;;;;;5070814;28;20025;-63
2023/01/30 08:45:57;;;;;;;19.58;4.25;;;9.90;99.20;;;;;;5070343;28;20066;-60
2023/01/30 08:48:23;;;;;;;17.02;3.53;;;10.10;96.60;;;;;;5071785;28;20036;-60
2023/01/30 08:50:53;;;;;;;15.32;3.55;;;10.00;96.30;;;;;;5064979;28;20020;-61
2023/01/30 08:53:19;;;;;;;17.80;3.28;;;9.90;96.20;;;;;;5071048;28;20040;-59
2023/01/30 08:55:44;;;;;;;15.77;3.13;;;9.90;96.30;;;;;;5070295;28;20028;-59
2023/01/30 08:58:10;;;;;;;11.70;3.47;;;10.00;97.10;;;;;;5073797;28;20066;-59
2023/01/30 09:00:38;;;;;;;13.50;3.50;;;10.10;96.00;;;;;;5069117;28;20029;-58
2023/01/30 09:03:03;;;;;;;12.55;2.83;;;10.10;96.40;;;;;;5080479;28;20107;-60
2023/01/30 09:05:29;;;;;;;14.23;2.58;;;10.30;96.10;;;;;;5075466;28;20453;-61
2023/01/30 09:07:55;;;;;;;16.42;3.45;;;10.40;96.20;;;;;;5076785;28;20032;-60
2023/01/30 09:10:23;;;;;;;17.17;3.05;;;10.40;95.10;;;;;;5070885;28;20029;-60
2023/01/30 09:12:48;;;;;;;15.50;3.35;;;10.40;94.90;;;;;;5075314;28;20063;-59
2023/01/30 09:15:14;;;;;;;14.93;3.10;;;10.30;94.70;;;;;;5075641;28;20431;-60
2023/01/30 09:17:39;;;;;;;17.42;3.65;;;10.30;94.60;;;;;;5069823;28;20039;-60
2023/01/30 09:20:07;;;;;;;17.17;3.38;;;10.30;94.70;;;;;;5068549;28;20111;-59
2023/01/30 09:22:33;;;;;;;13.48;3.50;;;10.40;95.40;;;;;;5070790;28;20031;-60
2023/01/30 09:24:58;;;;;;;14.70;3.28;;;10.30;95.10;;;;;;5073619;28;20020;-60
2023/01/30 09:27:24;;;;;;;14.68;3.50;;;10.40;95.10;;;;;;5072008;28;20370;-61
2023/01/30 09:29:50;;;;;;;12.10;2.72;;;10.60;95.60;;;;;;5072627;28;20052;-59
2023/01/30 09:32:15;;;;;;;19.42;3.40;;;11.00;96.80;;;;;;5072482;28;20463;-59
2023/01/30 09:34:41;;;;;;;16.45;3.03;;;11.40;94.00;;;;;;5072307;28;20470;-59
2023/01/30 09:37:07;;;;;;;20.25;3.30;;;11.10;93.50;;;;;;5073318;28;20079;-59
2023/01/30 09:39:33;;;;;;;11.95;2.70;;;10.80;93.90;;;;;;5072127;28;20045;-59
2023/01/30 09:42:24;;;;;;;19.20;3.38;;;10.50;94.10;;;;;;5071254;28;20031;-60
2023/01/30 09:45:11;;;;;;;25.10;3.63;;;10.30;94.60;;;;;;5069806;28;20037;-58
2023/01/30 09:48:10;;;;;;;18.00;4.07;;;10.20;94.80;;;;;;5080666;28;20029;-59
2023/01/30 09:51:04;;;;;;;16.48;3.42;;;10.30;95.30;;;;;;5065117;28;20050;-61
2023/01/30 09:54:16;;;;;;;15.05;3.40;;;10.40;94.80;;;;;;5071260;28;20422;-63
2023/01/30 09:56:42;;;;;;;17.80;3.10;;;10.40;94.90;;;;;;4983018;28;20030;-60
2023/01/30 09:59:22;;;;;;;14.85;3.60;;;10.50;95.50;;;;;;4987895;28;20069;-59
2023/01/30 10:01:53;;;;;;;12.82;3.05;;;10.50;97.80;;;;;;5036074;28;20064;-59
2023/01/30 10:04:46;;;;;;;15.23;3.88;;;10.60;97.00;;;;;;5068135;28;20126;-59
2023/01/30 10:07:15;;;;;;;15.50;3.95;;;10.70;96.50;;;;;;5046688;28;20032;-60
2023/01/30 10:10:19;;;;;;;18.15;4.38;;;10.70;96.60;;;;;;5071972;28;20496;-59
2023/01/30 10:13:02;;;;;;;11.57;3.13;;;10.70;96.00;;;;;;5007853;28;20479;-60
2023/01/30 10:15:42;;;;;;;20.35;3.40;;;10.80;96.00;;;;;;5071670;28;20111;-59
2023/01/30 10:18:22;;;;;;;19.08;3.40;;;10.80;95.70;;;;;;5071759;28;20119;-59
2023/01/30 10:21:17;;;;;;;15.27;3.13;;;10.80;96.10;;;;;;5067321;28;20020;-62
2023/01/30 10:24:13;;;;;;;13.32;3.20;;;10.80;95.90;;;;;;5072768;28;20085;-62
2023/01/30 10:26:41;;;;;;;13.27;2.95;;;10.90;95.90;;;;;;5070505;28;20122;-59
2023/01/30 10:29:37;;;;;;;13.35;3.17;;;10.80;95.80;;;;;;5070720;28;20483;-62
2023/01/30 10:32:25;;;;;;;12.75;2.58;;;10.90;95.70;;;;;;5072247;28;20385;-63
2023/01/30 10:34:55;;;;;;;13.98;2.80;;;10.90;95.50;;;;;;5066462;28;20120;-63
2023/01/30 10:37:31;;;;;;;15.63;3.58;;;10.90;95.50;;;;;;5070302;28;20068;-65
2023/01/30 10:40:25;;;;;;;17.25;3.50;;;11.00;96.50;;;;;;5071151;28;20044;-62
2023/01/30 10:43:24;;;;;;;11.75;2.17;;;11.10;96.10;;;;;;5072358;28;20112;-67
2023/01/30 10:45:55;;;;;;;16.17;2.90;;;11.20;95.80;;;;;;5060854;28;20044;-63
2023/01/30 10:48:39;;;;;;;11.95;2.90;;;11.20;96.30;;;;;;5071423;28;20370;-64
2023/01/30 10:51:21;;;;;;;14.07;2.95;;;11.30;96.40;;;;;;5072493;28;20119;-63
2023/01/30 10:54:02;;;;;;;10.65;2.70;;;11.30;96.10;;;;;;5071671;28;20103;-69
2023/01/30 10:56:42;;;;;;;15.68;3.30;;;11.30;95.90;;;;;;5071636;28;20027;-64
2023/01/30 10:59:23;;;;;;;11.02;2.58;;;11.40;96.60;;;;;;5071638;28;20434;-64
2023/01/30 11:01:58;;;;;;;13.45;3.38;;;11.50;96.90;;;;;;5071535;28;20108;-61
2023/01/30 11:04:32;;;;;;;11.55;3.05;;;11.50;95.60;;;;;;5068448;28;20431;-60
2023/01/30 11:07:00;;;;;;;16.60;3.67;;;11.50;96.30;;;;;;5072169;28;20519;-66
2023/01/30 11:09:47;;;;;;;13.43;3.05;;;11.50;95.90;;;;;;5069604;28;20035;-60
2023/01/30 11:12:13;;;;;;;9.93;2.92;;;11.60;96.60;;;;;;5067137;28;20115;-63
2023/01/30 11:15:11;;;;;;;13.02;3.00;;;11.60;95.60;;;;;;5065458;28;20563;-60
2023/01/30 11:17:40;;;;;;;10.48;3.00;;;11.70;96.10;;;;;;5013796;28;20131;-63
2023/01/30 11:20:09;;;;;;;10.43;2.25;;;11.70;95.90;;;;;;5070806;28;20130;-68
2023/01/30 11:22:36;;;;;;;12.05;2.75;;;11.70;95.40;;;;;;5066799;28;20112;-64
2023/01/30 11:25:18;;;;;;;13.55;2.90;;;11.80;95.70;;;;;;5069822;28;20016;-60
2023/01/30 11:27:52;;;;;;;12.90;2.47;;;11.80;95.00;;;;;;5066870;28;20556;-69
2023/01/30 11:30:20;;;;;;;11.02;2.63;;;11.80;95.00;;;;;;5065892;28;20025;-65
2023/01/30 11:32:48;;;;;;;16.13;3.38;;;11.80;94.50;;;;;;5070403;28;20078;-65
2023/01/30 11:35:13;;;;;;;15.05;2.70;;;11.80;94.50;;;;;;5069082;28;20028;-70
2023/01/30 11:37:42;;;;;;;10.82;2.42;;;11.80;94.20;;;;;;5069841;28;20102;-69
2023/01/30 11:40:16;;;;;;;14.95;3.33;;;11.70;94.00;;;;;;5066660;28;20091;-70
2023/01/30 11:43:10;;;;;;;17.23;3.30;;;11.70;94.20;;;;;;5066171;28;20028;-61
2023/01/30 11:45:45;;;;;;;13.40;3.28;;;11.70;94.20;;;;;;5060210;28;20143;-60
2023/01/30 11:48:20;;;;;;;13.85;3.20;;;11.70;94.20;;;;;;5066719;28;20094;-63
2023/01/30 11:50:53;;;;;;;18.63;3.58;;;11.70;93.90;;;;;;5069977;28;20016;-70
2023/01/30 11:53:18;;;;;;;19.50;3.63;;;11.70;93.60;;;;;;5070044;28;20396;-64
2023/01/30 11:55:45;;;;;;;14.25;3.47;;;11.80;93.70;;;;;;5071714;28;20103;-69
2023/01/30 11:58:13;;;;;;;13.30;3.20;;;11.80;93.60;;;;;;5070728;28;20029;-68
2023/01/30 12:00:46;;;;;;;10.90;2.45;;;11.80;93.40;;;;;;5068343;28;20075;-70
2023/01/30 12:03:17;;;;;;;12.68;3.10;;;11.80;93.50;;;;;;5060314;28;20028;-60
2023/01/30 12:05:45;;;;;;;14.93;2.72;;;11.90;93.50;;;;;;5071376;28;20034;-69
2023/01/30 12:08:20;;;;;;;14.57;3.25;;;11.80;93.40;;;;;;5068175;28;20033;-70
2023/01/30 12:10:48;;;;;;;12.00;2.90;;;11.90;93.80;;;;;;5069010;28;20020;-65
2023/01/30 12:13:21;;;;;;;9.77;2.97;;;12.00;93.70;;;;;;5068517;28;20021;-66
2023/01/30 12:15:54;;;;;;;12.05;3.20;;;12.10;94.00;;;;;;5068901;28;20032;-65
2023/01/30 12:18:28;;;;;;;;;;;12.10;94.10;;;;;;5066939;28;20075;-68
2023/01/30 12:21:22;;;;;;;11.80;2.70;;;12.10;94.00;;;;;;5070482;28;19935;-70
2023/01/30 12:23:56;;;;;;;13.77;3.05;;;12.20;94.50;;;;;;5068789;28;20040;-63
2023/01/30 12:26:44;;;;;;;12.63;3.70;;;12.20;93.30;;;;;;5071120;28;20020;-68
2023/01/30 12:29:36;;;;;;;12.45;3.35;;;12.20;93.60;;;;;;5069414;28;20478;-68
2023/01/30 12:32:05;;;;;;;;;;;12.30;94.60;;;;;;5070723;28;20020;-66
2023/01/30 12:34:31;;;;;;;19.45;3.58;;;12.20;93.20;;;;;;5069698;28;19955;-68
2023/01/30 12:37:30;;;;;;;15.55;3.17;;;12.30;93.30;;;;;;5070656;28;20051;-68
2023/01/30 12:40:33;;;;;;;12.68;2.78;;;12.30;93.60;;;;;;5066170;28;20032;-60
2023/01/30 12:43:01;;;;;;;9.95;2.63;;;12.30;92.80;;;;;;5058986;28;20028;-67
2023/01/30 12:45:31;;;;;;;13.90;2.92;;;12.30;93.80;;;;;;5069732;28;20103;-68
2023/01/30 12:48:31;;;;;;;18.17;3.50;;;12.40;93.80;;;;;;5062386;28;20017;-67
2023/01/30 12:51:26;;;;;;;11.18;2.65;;;12.40;92.80;;;;;;5059490;28;20060;-67
2023/01/30 12:54:30;;;;;;;14.25;2.58;;;12.40;93.90;;;;;;5058332;28;20043;-68
2023/01/30 12:57:08;;;;;;;14.43;3.15;;;12.50;93.60;;;;;;5056842;28;20039;-63
2023/01/30 13:00:05;;;;;;;12.70;2.38;;;12.40;93.30;;;;;;5062494;28;20068;-65
2023/01/30 13:02:42;;;;;;;12.25;2.95;;;12.50;93.70;;;;;;5063616;28;20017;-67
2023/01/30 13:05:33;;;;;;;10.80;2.85;;;12.50;93.10;;;;;;5067022;28;20052;-66